Westboro, Ohio
Current Conditions -  °F | °C
As of 1:54 AM on Thursday 23 Oct 2014 (Local Time) from KILN Reporting Station
Overcast Overcast  
Wind Chill:   Ceiling: 3100
Heat Index:   Visibility: 10mi
Dew Point:   Wind: 6mph
Humidity: 74%   Direction: 340°NNW
Pressure: 30.24"   Gusts: NA
Location:  39.2883°N, 83.8861°W
Report Text: KILN 230554Z AUTO 34005KT 10SM OVC031 08/04 A3024 RMK AO2 SLP253 T00830039 10083 20072 58003
Loading
Personal Weather Stations






























Interactive Weather Map
Tropical Storm Tracking
New forecast layout! Learn more

10-Day Weather Forecast

Advertisements
Track Severe Weather on mobile